createdAt,value
2023-03-30T00:00:51.795Z,97848.38
2023-03-30T00:03:19.681Z,97843.66
2023-03-30T00:05:51.765Z,97837.59
2023-03-30T00:08:19.194Z,97843.06
2023-03-30T00:10:46.369Z,97837.91
2023-03-30T00:13:13.297Z,97827.56
2023-03-30T00:15:41.406Z,97832.41
2023-03-30T00:18:09.451Z,97829.25
2023-03-30T00:20:37.828Z,97811.47
2023-03-30T00:23:04.594Z,97796.06
2023-03-30T00:25:31.347Z,97800.47
2023-03-30T00:27:57.955Z,97798.28
2023-03-30T00:30:24.442Z,97796.78
2023-03-30T00:32:51.335Z,97781.75
2023-03-30T00:35:18.030Z,97797.03
2023-03-30T00:37:45.871Z,97805.63
2023-03-30T00:40:19.337Z,97809.88
2023-03-30T00:42:47.196Z,97801.38
2023-03-30T00:45:23.418Z,97801.38
2023-03-30T00:47:59.023Z,97790.13
2023-03-30T00:50:43.922Z,97779.94
2023-03-30T00:53:20.875Z,97770.66
2023-03-30T00:55:50.692Z,97761.84
2023-03-30T00:58:18.415Z,97760.00
2023-03-30T01:00:47.390Z,97763.56
2023-03-30T01:03:22.917Z,97756.59
2023-03-30T01:05:51.555Z,97750.03
2023-03-30T01:08:19.376Z,97747.19
2023-03-30T01:10:46.051Z,97735.50
2023-03-30T01:13:14.840Z,97727.75
2023-03-30T01:15:53.544Z,97729.69
2023-03-30T01:18:33.276Z,97716.38
2023-03-30T01:21:24.617Z,97720.47
2023-03-30T01:24:08.045Z,97716.50
2023-03-30T01:26:54.418Z,97709.13
2023-03-30T01:29:27.669Z,97709.13
2023-03-30T01:32:12.888Z,97703.84
2023-03-30T01:35:06.042Z,97699.03
2023-03-30T01:37:44.614Z,97691.97
2023-03-30T01:40:20.273Z,97692.13
2023-03-30T01:43:07.389Z,97694.75
2023-03-30T01:45:43.768Z,97691.84
2023-03-30T01:48:44.710Z,97691.97
2023-03-30T01:51:20.315Z,97703.09
2023-03-30T01:53:58.193Z,97702.09
2023-03-30T01:56:44.283Z,97698.50
2023-03-30T01:59:28.979Z,97711.75
2023-03-30T02:02:00.681Z,97704.84
2023-03-30T02:04:29.682Z,97706.34
2023-03-30T02:07:00.943Z,97709.25
2023-03-30T02:09:29.839Z,97709.72
2023-03-30T02:11:56.736Z,97706.41
2023-03-30T02:14:28.026Z,97715.09
2023-03-30T02:17:00.682Z,97726.66
2023-03-30T02:19:28.068Z,97722.22
2023-03-30T02:21:55.321Z,97728.88
2023-03-30T02:24:27.289Z,97722.94
2023-03-30T02:26:55.170Z,97731.41
2023-03-30T02:29:23.081Z,97720.03
2023-03-30T02:31:53.384Z,97732.88
2023-03-30T02:34:37.158Z,97723.69
2023-03-30T02:37:26.479Z,97715.78
2023-03-30T02:40:22.267Z,97711.09
2023-03-30T02:43:14.460Z,97711.25
2023-03-30T02:45:49.071Z,97713.91
2023-03-30T02:48:19.066Z,97714.22
2023-03-30T02:50:54.733Z,97704.38
2023-03-30T02:53:32.662Z,97698.84
2023-03-30T02:56:27.730Z,97713.22
2023-03-30T02:59:00.659Z,97713.66
2023-03-30T03:01:39.850Z,97714.38
2023-03-30T03:04:07.953Z,97713.38
2023-03-30T03:06:34.557Z,97721.38
2023-03-30T03:09:01.781Z,97719.38
2023-03-30T03:11:28.404Z,97712.22
2023-03-30T03:13:55.800Z,97713.63
2023-03-30T03:16:22.966Z,97707.09
2023-03-30T03:18:49.758Z,97709.22
2023-03-30T03:21:16.605Z,97694.03
2023-03-30T03:23:43.394Z,97703.94
2023-03-30T03:26:11.845Z,97706.50
2023-03-30T03:28:38.359Z,97705.31
2023-03-30T03:31:06.868Z,97701.91
2023-03-30T03:33:33.803Z,97687.53
2023-03-30T03:36:01.114Z,97677.13
2023-03-30T03:38:28.771Z,97682.25
2023-03-30T03:40:58.471Z,97675.13
2023-03-30T03:43:26.289Z,97666.03
2023-03-30T03:45:53.774Z,97671.31
2023-03-30T03:48:23.606Z,97664.47
2023-03-30T03:50:56.651Z,97674.88
2023-03-30T03:53:26.140Z,97680.28
2023-03-30T03:55:52.594Z,97678.16
2023-03-30T03:58:19.190Z,97689.63
2023-03-30T04:00:46.523Z,97702.06
2023-03-30T04:03:13.539Z,97696.53
2023-03-30T04:05:41.120Z,97706.34
2023-03-30T04:08:11.999Z,97703.66
2023-03-30T04:10:39.952Z,97699.81
2023-03-30T04:13:07.017Z,97697.84
2023-03-30T04:15:33.786Z,97703.09
2023-03-30T04:18:00.492Z,97707.88
2023-03-30T04:20:29.009Z,97717.81
2023-03-30T04:22:57.053Z,97704.78
2023-03-30T04:25:25.858Z,97718.88
2023-03-30T04:27:53.341Z,97711.91
2023-03-30T04:30:20.801Z,97710.59
2023-03-30T04:32:54.888Z,97719.03
2023-03-30T04:35:21.540Z,97713.16
2023-03-30T04:37:52.429Z,97713.50
2023-03-30T04:40:19.873Z,97704.16
2023-03-30T04:42:50.190Z,97700.84
2023-03-30T04:45:20.825Z,97698.72
2023-03-30T04:47:47.737Z,97703.31
2023-03-30T04:50:15.177Z,97690.97
2023-03-30T04:52:41.920Z,97700.47
2023-03-30T04:55:10.130Z,97694.13
2023-03-30T04:57:36.841Z,97700.31
2023-03-30T05:00:07.888Z,97704.28
2023-03-30T05:02:34.481Z,97690.44
2023-03-30T05:05:01.026Z,97671.69
2023-03-30T05:07:27.534Z,97663.28
2023-03-30T05:09:54.172Z,97655.25
2023-03-30T05:12:21.372Z,97658.72
2023-03-30T05:14:48.229Z,97649.13
2023-03-30T05:17:14.848Z,97631.41
2023-03-30T05:19:41.456Z,97629.69
2023-03-30T05:22:07.947Z,97609.16
2023-03-30T05:24:34.543Z,97609.59
2023-03-30T05:27:02.317Z,97594.50
2023-03-30T05:29:29.022Z,97581.78
2023-03-30T05:31:55.535Z,97584.09
2023-03-30T05:34:21.966Z,97597.56
2023-03-30T05:36:48.633Z,97588.84
2023-03-30T05:39:15.342Z,97578.13
2023-03-30T05:41:42.023Z,97570.88
2023-03-30T05:44:08.507Z,97560.09
2023-03-30T05:46:35.011Z,97538.31
2023-03-30T05:49:01.463Z,97546.34
2023-03-30T05:51:27.998Z,97550.63
2023-03-30T05:53:54.487Z,97557.59
2023-03-30T05:56:21.876Z,97547.91
2023-03-30T05:58:48.354Z,97553.75
2023-03-30T06:01:15.172Z,97560.88
2023-03-30T06:03:42.429Z,97551.25
2023-03-30T06:06:09.540Z,97548.06
2023-03-30T06:08:36.264Z,97540.19
2023-03-30T06:11:03.212Z,97539.09
2023-03-30T06:13:30.116Z,97536.63
2023-03-30T06:15:57.160Z,97528.66
2023-03-30T06:18:24.350Z,97522.00
2023-03-30T06:20:51.947Z,97523.97
2023-03-30T06:23:18.892Z,97528.69
2023-03-30T06:25:47.506Z,97525.28
2023-03-30T06:28:14.292Z,97538.63
2023-03-30T06:30:41.252Z,97544.56
2023-03-30T06:33:08.171Z,97535.94
2023-03-30T06:35:35.041Z,97539.38
2023-03-30T06:38:01.666Z,97549.13
2023-03-30T06:40:28.448Z,97541.88
2023-03-30T06:42:55.374Z,97527.75
2023-03-30T06:45:22.101Z,97540.81
2023-03-30T06:47:48.922Z,97533.66
2023-03-30T06:50:15.625Z,97532.31
2023-03-30T06:52:42.347Z,97529.44
2023-03-30T06:55:09.857Z,97531.78
2023-03-30T06:57:36.692Z,97544.28
2023-03-30T07:00:08.882Z,97548.31
2023-03-30T07:02:35.680Z,97548.94
2023-03-30T07:05:02.357Z,97554.31
2023-03-30T07:07:29.493Z,97551.03
2023-03-30T07:09:56.156Z,97564.72
2023-03-30T07:12:22.636Z,97570.38
2023-03-30T07:14:49.192Z,97570.44
2023-03-30T07:17:16.253Z,97567.41
2023-03-30T07:19:42.774Z,97573.00
2023-03-30T07:22:09.799Z,97584.59
2023-03-30T07:24:36.517Z,97580.63
2023-03-30T07:27:03.289Z,97582.25
2023-03-30T07:29:30.038Z,97593.16
2023-03-30T07:31:57.044Z,97600.59
2023-03-30T07:34:24.519Z,97603.53
2023-03-30T07:36:51.248Z,97596.88
2023-03-30T07:39:18.155Z,97607.13
2023-03-30T07:41:45.944Z,97603.00
2023-03-30T07:44:12.687Z,97615.91
2023-03-30T07:46:39.421Z,97619.41
2023-03-30T07:49:06.292Z,97620.47
2023-03-30T07:51:33.466Z,97614.19
2023-03-30T07:54:00.556Z,97625.63
2023-03-30T07:56:27.337Z,97623.75
2023-03-30T07:58:53.942Z,97618.00
2023-03-30T08:01:21.091Z,97637.09
2023-03-30T08:03:48.387Z,97627.97
2023-03-30T08:06:15.804Z,97646.25
2023-03-30T08:08:43.629Z,97627.28
2023-03-30T08:11:11.457Z,97640.13
2023-03-30T08:13:38.181Z,97635.56
2023-03-30T08:16:04.969Z,97633.97
2023-03-30T08:18:31.716Z,97622.69
2023-03-30T08:20:58.236Z,97613.53
2023-03-30T08:23:24.782Z,97622.00
2023-03-30T08:25:52.937Z,97609.25
2023-03-30T08:28:21.212Z,97590.97
2023-03-30T08:30:48.430Z,97570.91
2023-03-30T08:33:15.845Z,97565.97
2023-03-30T08:35:49.516Z,97543.09
2023-03-30T08:38:17.416Z,97538.16
2023-03-30T08:40:46.852Z,97533.38
2023-03-30T08:44:01.771Z,97548.84
2023-03-30T08:46:29.943Z,97553.84
2023-03-30T08:49:01.175Z,97571.66
2023-03-30T08:51:29.804Z,97593.78
2023-03-30T08:54:07.171Z,97597.28
2023-03-30T08:56:46.039Z,97594.31
2023-03-30T08:59:33.493Z,97595.41
2023-03-30T09:02:20.764Z,97595.59
2023-03-30T09:05:14.270Z,97589.53
2023-03-30T09:07:48.144Z,97598.72
2023-03-30T09:10:15.725Z,97598.56
2023-03-30T09:12:47.805Z,97600.63
2023-03-30T09:15:22.233Z,97609.50
2023-03-30T09:18:00.924Z,97616.19
2023-03-30T09:20:30.815Z,97616.66
2023-03-30T09:23:02.082Z,97616.34
2023-03-30T09:25:35.160Z,97607.78
2023-03-30T09:28:31.130Z,97614.25
2023-03-30T09:31:08.835Z,97624.19
2023-03-30T09:33:46.526Z,97623.84
2023-03-30T09:36:47.458Z,97609.78
2023-03-30T09:39:22.869Z,97610.91
2023-03-30T09:42:21.241Z,97616.44
2023-03-30T09:44:58.548Z,97613.13
2023-03-30T09:47:28.371Z,97608.06
2023-03-30T09:49:56.824Z,97612.75
2023-03-30T09:52:26.987Z,97621.00
2023-03-30T09:54:53.614Z,97613.28
2023-03-30T09:57:25.576Z,97610.47
2023-03-30T09:59:55.886Z,97607.69
2023-03-30T10:02:25.444Z,97598.44
2023-03-30T10:04:58.185Z,97589.59
2023-03-30T10:07:36.604Z,97594.16
2023-03-30T10:10:28.769Z,97586.94
2023-03-30T10:13:02.621Z,97590.84
2023-03-30T10:15:32.937Z,97601.69
2023-03-30T10:18:26.729Z,97592.19
2023-03-30T10:21:16.289Z,97590.69
2023-03-30T10:23:45.886Z,97583.38
2023-03-30T10:26:21.866Z,97578.97
2023-03-30T10:28:57.369Z,97584.00
2023-03-30T10:31:27.916Z,97583.41
2023-03-30T10:33:59.575Z,97569.53
2023-03-30T10:36:32.464Z,97577.34
2023-03-30T10:39:25.823Z,97565.22
2023-03-30T10:41:54.324Z,97573.72
2023-03-30T10:44:30.817Z,97567.84
2023-03-30T10:47:21.856Z,97569.09
2023-03-30T10:50:28.076Z,97559.72
2023-03-30T10:53:05.116Z,97559.34
2023-03-30T10:55:50.039Z,97549.28
2023-03-30T10:58:21.722Z,97548.91
2023-03-30T11:00:59.669Z,97545.00
2023-03-30T11:03:29.525Z,97554.94
2023-03-30T11:06:07.362Z,97541.31
2023-03-30T11:08:40.182Z,97543.00
2023-03-30T11:11:13.056Z,97531.06
2023-03-30T11:13:49.522Z,97532.41
2023-03-30T11:16:18.686Z,97541.63
2023-03-30T11:18:57.212Z,97524.28
2023-03-30T11:21:51.781Z,97535.06
2023-03-30T11:24:21.622Z,97518.03
2023-03-30T11:26:56.589Z,97525.44
2023-03-30T11:29:26.185Z,97527.50
2023-03-30T11:32:17.430Z,97520.38
2023-03-30T11:35:24.666Z,97503.00
2023-03-30T11:37:58.782Z,97513.84
2023-03-30T11:40:28.085Z,97512.38
2023-03-30T11:42:55.804Z,97503.06
2023-03-30T11:46:04.234Z,97504.75
2023-03-30T11:48:39.055Z,97508.00
2023-03-30T11:51:26.070Z,97512.81
2023-03-30T11:54:35.380Z,97498.28
2023-03-30T11:57:17.374Z,97486.75
2023-03-30T12:00:21.163Z,97483.16
2023-03-30T12:03:14.554Z,97489.97
2023-03-30T12:05:53.577Z,97466.56
2023-03-30T12:08:37.142Z,97475.66
2023-03-30T12:11:22.754Z,97472.06
2023-03-30T12:13:52.175Z,97474.63
2023-03-30T12:16:32.402Z,97472.19
2023-03-30T12:19:17.446Z,97473.03
2023-03-30T12:22:07.462Z,97482.34
2023-03-30T12:24:40.457Z,97474.03
2023-03-30T12:27:11.562Z,97482.59
2023-03-30T12:30:02.577Z,97492.19
2023-03-30T12:32:31.357Z,97492.09
2023-03-30T12:34:59.999Z,97497.00
2023-03-30T12:37:37.907Z,97507.31
2023-03-30T12:40:22.688Z,97491.91
2023-03-30T12:43:21.051Z,97487.88
2023-03-30T12:46:10.618Z,97489.00
2023-03-30T12:48:48.903Z,97479.47
2023-03-30T12:51:18.262Z,97475.09
2023-03-30T12:54:00.466Z,97488.16
2023-03-30T12:56:44.022Z,97464.47
2023-03-30T12:59:25.581Z,97476.16
2023-03-30T13:02:11.456Z,97492.19
2023-03-30T13:04:43.197Z,97490.72
2023-03-30T13:07:22.401Z,97512.84
2023-03-30T13:10:06.417Z,97488.78
2023-03-30T13:12:38.445Z,97483.66
2023-03-30T13:15:30.668Z,97485.00
2023-03-30T13:18:23.533Z,97535.50
2023-03-30T13:20:56.149Z,97602.72
2023-03-30T13:23:22.725Z,97596.63
2023-03-30T13:26:02.470Z,97596.84
2023-03-30T13:28:59.976Z,97607.19
2023-03-30T13:31:45.160Z,97629.22
2023-03-30T13:34:43.508Z,97631.16
2023-03-30T13:37:29.120Z,97631.66
2023-03-30T13:39:58.385Z,97637.53
2023-03-30T13:42:53.508Z,97628.19
2023-03-30T13:45:33.969Z,97635.66
2023-03-30T13:48:09.484Z,97631.88
2023-03-30T13:50:36.441Z,97623.38
2023-03-30T13:53:09.648Z,97624.81
2023-03-30T13:55:39.908Z,97627.25
2023-03-30T13:58:12.583Z,97616.09
2023-03-30T14:00:49.103Z,97625.31
2023-03-30T14:03:49.363Z,97622.56
2023-03-30T14:06:17.945Z,97621.78
2023-03-30T14:08:48.109Z,97630.81
2023-03-30T14:11:18.991Z,97624.13
2023-03-30T14:13:49.175Z,97621.97
2023-03-30T14:16:33.015Z,97613.91
2023-03-30T14:19:27.625Z,97603.53
2023-03-30T14:21:59.179Z,97601.34
2023-03-30T14:24:34.139Z,97600.13
2023-03-30T14:27:15.179Z,97581.78
2023-03-30T14:29:47.685Z,97567.41
2023-03-30T14:32:16.340Z,97577.38
2023-03-30T14:34:51.219Z,97582.13
2023-03-30T14:37:21.180Z,97574.06
2023-03-30T14:39:56.853Z,97572.84
2023-03-30T14:42:31.562Z,97577.59
2023-03-30T14:44:58.522Z,97585.16
2023-03-30T14:47:27.384Z,97597.97
2023-03-30T14:49:57.461Z,97600.78
2023-03-30T14:52:30.208Z,97615.47
2023-03-30T14:55:08.008Z,97622.31
2023-03-30T14:57:39.161Z,97621.09
2023-03-30T15:00:17.804Z,97626.81
2023-03-30T15:02:45.502Z,97624.75
2023-03-30T15:05:15.108Z,97629.69
2023-03-30T15:07:41.861Z,97620.75
2023-03-30T15:10:21.753Z,97633.00
2023-03-30T15:12:49.198Z,97624.09
2023-03-30T15:15:21.281Z,97618.19
2023-03-30T15:17:50.621Z,97620.94
2023-03-30T15:20:18.237Z,97617.34
2023-03-30T15:22:49.188Z,97604.09
2023-03-30T15:25:21.565Z,97613.09
2023-03-30T15:27:56.405Z,97606.09
2023-03-30T15:30:29.628Z,97618.44
2023-03-30T15:32:57.428Z,97615.50
2023-03-30T15:35:31.065Z,97610.38
2023-03-30T15:38:13.687Z,97614.72
2023-03-30T15:40:43.773Z,97617.06
2023-03-30T15:43:22.706Z,97604.09
2023-03-30T15:46:06.261Z,97614.22
2023-03-30T15:48:43.357Z,97619.19
2023-03-30T15:51:22.019Z,97635.97
2023-03-30T15:53:56.869Z,97624.28
2023-03-30T15:56:29.644Z,97630.22
2023-03-30T15:58:57.994Z,97627.81
2023-03-30T16:01:38.837Z,97615.00
2023-03-30T16:04:06.387Z,97610.63
2023-03-30T16:06:33.034Z,97605.63
2023-03-30T16:08:59.697Z,97610.69
2023-03-30T16:11:26.702Z,97599.31
2023-03-30T16:13:54.411Z,97592.59
2023-03-30T16:16:21.752Z,97593.50
2023-03-30T16:18:48.612Z,97585.44
2023-03-30T16:21:15.948Z,97590.63
2023-03-30T16:23:42.785Z,97586.13
2023-03-30T16:26:12.103Z,97590.00
2023-03-30T16:28:40.804Z,97586.75
2023-03-30T16:31:17.537Z,97589.72
2023-03-30T16:33:44.501Z,97580.63
2023-03-30T16:36:17.666Z,97583.25
2023-03-30T16:38:44.872Z,97569.97
2023-03-30T16:41:17.770Z,97594.13
2023-03-30T16:43:44.692Z,97603.88
2023-03-30T16:46:17.534Z,97602.97
2023-03-30T16:48:45.932Z,97598.44
2023-03-30T16:51:14.915Z,97612.38
2023-03-30T16:53:42.246Z,97617.44
2023-03-30T16:56:18.979Z,97608.84
2023-03-30T16:58:47.088Z,97615.91
2023-03-30T17:01:18.358Z,97610.66
2023-03-30T17:03:45.965Z,97606.63
2023-03-30T17:06:14.189Z,97612.59
2023-03-30T17:08:42.903Z,97626.88
2023-03-30T17:11:13.628Z,97618.00
2023-03-30T17:13:41.309Z,97627.69
2023-03-30T17:16:09.178Z,97631.66
2023-03-30T17:18:35.898Z,97635.50
2023-03-30T17:21:02.721Z,97635.50
2023-03-30T17:23:34.833Z,97642.03
2023-03-30T17:26:02.531Z,97638.88
2023-03-30T17:28:29.280Z,97647.09
2023-03-30T17:30:58.592Z,97654.38
2023-03-30T17:33:26.286Z,97652.38
2023-03-30T17:36:01.976Z,97653.56
2023-03-30T17:38:30.012Z,97653.47
2023-03-30T17:40:56.958Z,97655.09
2023-03-30T17:43:23.915Z,97654.44
2023-03-30T17:45:50.731Z,97658.56
2023-03-30T17:48:20.200Z,97645.75
2023-03-30T17:50:49.853Z,97653.69
2023-03-30T17:53:18.252Z,97646.50
2023-03-30T17:55:46.987Z,97663.31
2023-03-30T17:58:21.138Z,97654.75
2023-03-30T18:00:49.442Z,97665.94
2023-03-30T18:03:17.420Z,97671.06
2023-03-30T18:05:44.899Z,97670.63
2023-03-30T18:08:17.867Z,97667.88
2023-03-30T18:10:48.120Z,97662.84
2023-03-30T18:13:16.881Z,97674.47
2023-03-30T18:15:46.235Z,97665.88
2023-03-30T18:18:13.453Z,97675.47
2023-03-30T18:20:46.937Z,97672.19
2023-03-30T18:23:13.440Z,97664.16
2023-03-30T18:25:40.082Z,97661.81
2023-03-30T18:28:15.183Z,97665.38
2023-03-30T18:30:42.362Z,97666.31
2023-03-30T18:33:08.991Z,97674.13
2023-03-30T18:35:37.294Z,97684.72
2023-03-30T18:38:04.808Z,97686.25
2023-03-30T18:40:37.248Z,97688.97
2023-03-30T18:43:05.274Z,97708.63
2023-03-30T18:45:38.159Z,97714.06
2023-03-30T18:48:07.026Z,97716.06
2023-03-30T18:50:37.958Z,97720.19
2023-03-30T18:53:07.082Z,97717.56
2023-03-30T18:55:36.775Z,97724.03
2023-03-30T18:58:06.748Z,97723.19
2023-03-30T19:00:34.973Z,97730.59
2023-03-30T19:03:05.040Z,97736.09
2023-03-30T19:05:33.672Z,97734.03
2023-03-30T19:08:00.226Z,97730.25
2023-03-30T19:10:36.502Z,97739.41
2023-03-30T19:13:03.557Z,97745.72
2023-03-30T19:15:33.747Z,97743.94
2023-03-30T19:18:01.707Z,97743.97
2023-03-30T19:20:30.529Z,97738.16
2023-03-30T19:22:57.408Z,97754.88
2023-03-30T19:25:26.062Z,97750.81
2023-03-30T19:28:03.397Z,97749.81
2023-03-30T19:30:33.633Z,97752.63
2023-03-30T19:33:04.310Z,97745.47
2023-03-30T19:35:31.605Z,97751.25
2023-03-30T19:37:58.318Z,97747.31
2023-03-30T19:40:25.152Z,97752.97
2023-03-30T19:42:51.831Z,97757.53
2023-03-30T19:45:21.624Z,97754.56
2023-03-30T19:47:48.332Z,97750.56
2023-03-30T19:50:18.201Z,97756.59
2023-03-30T19:52:48.860Z,97750.81
2023-03-30T19:55:16.246Z,97756.78
2023-03-30T19:57:42.952Z,97759.91
2023-03-30T20:00:15.964Z,97759.06
2023-03-30T20:02:45.568Z,97753.94
2023-03-30T20:05:16.062Z,97755.41
2023-03-30T20:07:44.858Z,97759.19
2023-03-30T20:10:15.143Z,97754.56
2023-03-30T20:12:42.031Z,97755.34
2023-03-30T20:15:09.939Z,97747.97
2023-03-30T20:17:38.221Z,97745.75
2023-03-30T20:20:08.811Z,97744.06
2023-03-30T20:22:36.965Z,97742.84
2023-03-30T20:25:05.954Z,97733.69
2023-03-30T20:27:33.936Z,97728.00
2023-03-30T20:30:01.291Z,97726.81
2023-03-30T20:32:28.097Z,97726.94
2023-03-30T20:34:54.914Z,97732.66
2023-03-30T20:37:21.603Z,97727.31
2023-03-30T20:39:50.081Z,97735.53
2023-03-30T20:42:18.277Z,97745.00
2023-03-30T20:44:50.477Z,97739.53
2023-03-30T20:47:23.423Z,97722.03
2023-03-30T20:49:50.383Z,97716.53
2023-03-30T20:52:17.095Z,97714.44
2023-03-30T20:54:44.898Z,97708.19
2023-03-30T20:57:12.494Z,97707.16
2023-03-30T20:59:39.730Z,97706.75
2023-03-30T21:02:07.341Z,97706.81
2023-03-30T21:04:34.259Z,97709.44
2023-03-30T21:07:01.006Z,97699.13
2023-03-30T21:09:28.163Z,97702.88
2023-03-30T21:11:54.929Z,97703.00
2023-03-30T21:14:24.054Z,97709.44
2023-03-30T21:16:51.098Z,97707.06
2023-03-30T21:19:17.885Z,97703.44
2023-03-30T21:21:44.804Z,97699.19
2023-03-30T21:24:12.101Z,97684.97
2023-03-30T21:26:38.786Z,97677.16
2023-03-30T21:29:05.985Z,97687.59
2023-03-30T21:31:33.151Z,97692.84
2023-03-30T21:34:00.119Z,97681.13
2023-03-30T21:36:27.475Z,97689.03
2023-03-30T21:38:56.042Z,97678.78
2023-03-30T21:41:24.432Z,97678.91
2023-03-30T21:43:51.162Z,97682.22
2023-03-30T21:46:21.067Z,97669.78
2023-03-30T21:48:51.779Z,97677.72
2023-03-30T21:51:21.511Z,97676.53
2023-03-30T21:53:50.689Z,97678.91
2023-03-30T21:56:19.227Z,97671.38
2023-03-30T21:58:46.015Z,97667.94
2023-03-30T22:01:13.046Z,97672.81
2023-03-30T22:03:42.024Z,97670.97
2023-03-30T22:06:11.746Z,97665.38
2023-03-30T22:08:38.517Z,97668.06
2023-03-30T22:11:11.687Z,97671.91
2023-03-30T22:13:38.421Z,97666.97
2023-03-30T22:16:14.191Z,97668.78
2023-03-30T22:18:41.459Z,97665.16
2023-03-30T22:21:11.872Z,97663.41
2023-03-30T22:23:38.404Z,97653.66
2023-03-30T22:26:05.177Z,97650.06
2023-03-30T22:28:32.146Z,97653.53
2023-03-30T22:30:58.754Z,97649.09
2023-03-30T22:33:27.801Z,97643.16
2023-03-30T22:35:54.626Z,97644.72
2023-03-30T22:38:21.405Z,97640.47
2023-03-30T22:40:47.958Z,97644.38
2023-03-30T22:43:14.633Z,97642.94
2023-03-30T22:45:43.648Z,97639.34
2023-03-30T22:48:10.367Z,97635.84
2023-03-30T22:50:37.018Z,97639.50
2023-03-30T22:53:03.925Z,97640.81
2023-03-30T22:55:30.655Z,97628.56
2023-03-30T22:57:57.880Z,97623.63
2023-03-30T23:00:24.767Z,97629.13
2023-03-30T23:02:51.992Z,97621.13
2023-03-30T23:05:21.301Z,97624.75
2023-03-30T23:07:49.520Z,97626.56
2023-03-30T23:10:22.358Z,97619.25
2023-03-30T23:12:49.263Z,97627.06
2023-03-30T23:15:18.534Z,97637.34
2023-03-30T23:17:47.733Z,97638.34
2023-03-30T23:20:15.451Z,97627.63
2023-03-30T23:22:42.624Z,97620.53
2023-03-30T23:25:10.047Z,97612.00
2023-03-30T23:27:37.724Z,97613.94
2023-03-30T23:30:05.593Z,97606.31
2023-03-30T23:32:34.111Z,97602.78
2023-03-30T23:35:01.435Z,97603.94
2023-03-30T23:37:30.307Z,97612.84
2023-03-30T23:40:01.943Z,97597.75
2023-03-30T23:42:29.223Z,97597.75
2023-03-30T23:44:56.336Z,97598.59
2023-03-30T23:47:23.174Z,97591.41
2023-03-30T23:49:50.034Z,97596.63
2023-03-30T23:52:16.718Z,97596.06
2023-03-30T23:54:43.252Z,97582.94
2023-03-30T23:57:09.911Z,97581.06
2023-03-30T23:59:37.354Z,97581.13
